Time;durP1;ratioP1;P1;durP2;ratioP2;P2;SDS_P1;SDS_P2;PMS_P1;PMS_P2;Temp;Humidity;BMP_temperature;BMP_pressure;BME280_temperature;BME280_humidity;BME280_pressure;Samples;Min_cycle;Max_cycle;Signal;HPM_P1;HPM_P2
2023/05/17 00:02:19;;;;;;;8.73;3.27;;;;;;;-145.18;100.00;46662.34;4933444;29;20094;-69
2023/05/17 00:04:44;;;;;;;15.50;3.37;;;;;;;-145.18;100.00;46662.34;4942795;28;20529;-69
2023/05/17 00:07:10;;;;;;;12.77;3.27;;;;;;;-145.18;100.00;46658.44;4945500;29;20078;-69
2023/05/17 00:09:35;;;;;;;15.83;3.07;;;;;;;-145.18;100.00;46658.44;4951021;29;20045;-69
2023/05/17 00:12:01;;;;;;;13.07;3.30;;;;;;;-145.18;100.00;46654.53;4940821;29;20138;-69
2023/05/17 00:14:26;;;;;;;17.67;3.73;;;;;;;-145.18;100.00;46660.41;4950126;29;20467;-69
2023/05/17 00:16:52;;;;;;;11.50;3.50;;;;;;;-145.18;100.00;46656.50;4951379;29;20094;-69
2023/05/17 00:19:17;;;;;;;9.87;3.70;;;;;;;-145.18;100.00;46664.31;4939187;29;20055;-69
2023/05/17 00:21:43;;;;;;;14.13;4.10;;;;;;;-145.18;100.00;46658.44;4945093;29;20043;-69
2023/05/17 00:24:08;;;;;;;14.97;4.03;;;;;;;-145.18;100.00;46656.50;4943046;29;20043;-69
2023/05/17 00:26:34;;;;;;;16.93;4.03;;;;;;;-145.18;100.00;46656.50;4952248;29;20444;-69
2023/05/17 00:28:59;;;;;;;17.60;4.00;;;;;;;-145.18;100.00;46660.41;4942940;29;20102;-69
2023/05/17 00:31:25;;;;;;;12.67;3.63;;;;;;;-145.18;100.00;46658.44;4935431;29;20031;-69
2023/05/17 00:33:50;;;;;;;18.53;3.80;;;;;;;-145.18;100.00;46658.44;4942739;29;20082;-69
2023/05/17 00:36:16;;;;;;;19.20;5.00;;;;;;;-145.18;100.00;46656.50;4952533;29;20134;-69
2023/05/17 00:38:41;;;;;;;20.00;4.70;;;;;;;-145.18;100.00;46656.50;4946448;29;20032;-69
2023/05/17 00:41:06;;;;;;;14.07;4.10;;;;;;;-145.18;100.00;46654.53;4935339;29;20063;-69
2023/05/17 00:43:32;;;;;;;13.70;4.30;;;;;;;-145.18;100.00;46656.50;4948028;29;20043;-69
2023/05/17 00:45:57;;;;;;;14.13;4.80;;;;;;;-145.18;100.00;46658.44;4952879;29;20041;-69
2023/05/17 00:48:26;;;;;;;12.07;3.87;;;;;;;-145.18;100.00;46654.53;4949409;29;20078;-69
2023/05/17 00:50:52;;;;;;;19.77;4.67;;;;;;;-145.18;100.00;46656.50;4950826;29;20080;-69
2023/05/17 00:53:18;;;;;;;14.83;4.27;;;;;;;-145.18;100.00;46658.44;4939425;29;20277;-69
2023/05/17 00:55:44;;;;;;;12.00;3.70;;;;;;;-145.18;100.00;46654.53;4952758;29;20289;-69
2023/05/17 00:58:13;;;;;;;17.57;4.13;;;;;;;-145.18;100.00;46656.50;4952118;29;20765;-69
2023/05/17 01:00:39;;;;;;;18.80;4.47;;;;;;;-145.18;100.00;46656.50;4950591;29;20293;-69
2023/05/17 01:03:04;;;;;;;16.50;4.50;;;;;;;-145.18;100.00;46652.59;4943960;28;20782;-69
2023/05/17 01:05:30;;;;;;;16.73;4.53;;;;;;;-145.18;100.00;46650.63;4950923;29;20035;-69
2023/05/17 01:07:55;;;;;;;14.87;4.70;;;;;;;-145.18;100.00;46658.44;4952358;29;20039;-69
2023/05/17 01:10:41;;;;;;;12.60;3.73;;;;;;;-145.18;100.00;46648.69;4937893;29;20115;-69
2023/05/17 01:13:19;;;;;;;11.00;3.97;;;;;;;-145.18;100.00;46654.53;4941959;29;20047;-69
2023/05/17 01:15:54;;;;;;;19.53;4.33;;;;;;;-145.18;100.00;46652.59;4943892;28;20031;-69
2023/05/17 01:18:37;;;;;;;15.85;3.92;;;;;;;-145.18;100.00;46656.50;4934774;29;20274;-69
2023/05/17 01:21:13;;;;;;;15.63;4.77;;;;;;;-145.18;100.00;46650.63;4950938;29;20112;-69
2023/05/17 01:23:58;;;;;;;18.70;4.17;;;;;;;-145.18;100.00;46654.53;4952140;29;20281;-69
2023/05/17 01:26:42;;;;;;;23.87;4.53;;;;;;;-145.18;100.00;46656.50;4950540;29;20726;-69
2023/05/17 01:29:09;;;;;;;21.00;4.73;;;;;;;-145.18;100.00;46652.59;4945661;29;20289;-69
2023/05/17 01:31:35;;;;;;;16.70;4.73;;;;;;;-145.18;100.00;46658.44;4950656;29;20365;-69
2023/05/17 01:34:00;;;;;;;16.07;4.80;;;;;;;-145.18;100.00;46654.53;4934810;29;20755;-69
2023/05/17 01:36:26;;;;;;;13.97;4.70;;;;;;;-145.18;100.00;46656.50;4934367;29;20280;-69
2023/05/17 01:38:51;;;;;;;11.40;4.80;;;;;;;-145.18;100.00;46654.53;4950316;29;20389;-69
2023/05/17 01:41:42;;;;;;;15.20;3.87;;;;;;;-145.18;100.00;46654.53;4950599;29;20401;-69
2023/05/17 01:44:21;;;;;;;22.80;4.40;;;;;;;-145.18;100.00;46656.50;4934798;29;20490;-69
2023/05/17 01:46:51;;;;;;;17.47;4.40;;;;;;;-145.18;100.00;46654.53;4935314;29;20304;-69
2023/05/17 01:49:31;;;;;;;13.73;4.23;;;;;;;-145.18;100.00;46648.69;4936306;29;20289;-69
2023/05/17 01:52:11;;;;;;;14.90;4.47;;;;;;;-145.18;100.00;46656.50;4932585;29;20285;-69
2023/05/17 01:55:09;;;;;;;22.30;5.67;;;;;;;-145.18;100.00;46650.63;4934430;29;20779;-69
2023/05/17 01:57:36;;;;;;;21.63;5.60;;;;;;;-145.18;100.00;46660.41;4939673;29;20377;-70
2023/05/17 02:00:05;;;;;;;17.53;5.00;;;;;;;-145.18;100.00;46656.50;4945318;29;20708;-70
2023/05/17 02:02:31;;;;;;;15.67;4.97;;;;;;;-145.18;100.00;46648.69;5168111;23;20412;-69
2023/05/17 02:04:57;;;;;;;23.17;5.23;;;;;;;-145.18;100.00;46654.53;4968779;28;20367;-70
2023/05/17 02:07:22;;;;;;;15.67;4.17;;;;;;;-145.18;100.00;46648.69;4972623;28;20035;-69
2023/05/17 02:09:48;;;;;;;24.83;5.57;;;;;;;-145.18;100.00;46650.63;4956786;28;20293;-69
2023/05/17 02:12:13;;;;;;;12.07;4.20;;;;;;;-145.18;100.00;46656.50;4953113;29;20098;-69
2023/05/17 02:14:39;;;;;;;15.60;5.00;;;;;;;-145.18;100.00;46646.72;4953357;29;20049;-69
2023/05/17 02:17:04;;;;;;;19.03;3.80;;;;;;;-145.18;100.00;46652.59;4952973;29;20393;-69
2023/05/17 02:19:30;;;;;;;22.13;4.97;;;;;;;-145.18;100.00;46660.41;4965724;28;20042;-69
2023/05/17 02:21:56;;;;;;;12.50;4.37;;;;;;;-145.18;100.00;46656.50;4971860;28;20039;-69
2023/05/17 02:24:21;;;;;;;18.20;4.23;;;;;;;-145.18;100.00;46652.59;4972417;28;20081;-69
2023/05/17 02:26:47;;;;;;;19.00;4.50;;;;;;;-145.18;100.00;46656.50;4971597;28;20039;-69
2023/05/17 02:29:13;;;;;;;16.53;4.63;;;;;;;-145.18;100.00;46656.50;4962367;28;20050;-69
2023/05/17 02:31:38;;;;;;;21.63;5.23;;;;;;;-145.18;100.00;46652.59;4953000;29;20121;-69
2023/05/17 02:34:04;;;;;;;15.87;6.00;;;;;;;-145.18;100.00;46654.53;4952731;29;20039;-69
2023/05/17 02:36:30;;;;;;;12.37;4.47;;;;;;;-145.18;100.00;46656.50;4953118;29;20042;-69
2023/05/17 02:38:55;;;;;;;15.73;4.10;;;;;;;-145.18;100.00;46658.44;4962131;28;20042;-70
2023/05/17 02:41:20;;;;;;;13.90;3.97;;;;;;;-145.18;100.00;46660.41;4971979;28;20419;-69
2023/05/17 02:43:46;;;;;;;13.60;4.50;;;;;;;-145.18;100.00;46660.41;4952668;28;20829;-70
2023/05/17 02:46:11;;;;;;;15.53;5.40;;;;;;;-145.18;100.00;46654.53;4971715;28;20054;-69
2023/05/17 02:48:36;;;;;;;20.87;4.63;;;;;;;-145.18;100.00;46656.50;4970960;28;20030;-69
2023/05/17 02:51:02;;;;;;;14.83;4.13;;;;;;;-145.18;100.00;46652.59;4967629;28;20508;-69
2023/05/17 02:53:27;;;;;;;14.57;4.00;;;;;;;-145.18;100.00;46656.50;4952582;29;20507;-69
2023/05/17 02:55:56;;;;;;;11.93;4.80;;;;;;;-145.18;100.00;46658.44;4952525;29;20043;-69
2023/05/17 02:58:22;;;;;;;21.13;5.67;;;;;;;-145.18;100.00;46654.53;4959293;28;20591;-69
2023/05/17 03:00:48;;;;;;;20.03;4.83;;;;;;;-145.18;100.00;46652.59;4971653;28;20302;-69
2023/05/17 03:03:13;;;;;;;15.73;4.33;;;;;;;-145.18;100.00;46652.59;4970795;28;20069;-69
2023/05/17 03:05:38;;;;;;;14.63;4.03;;;;;;;-145.18;100.00;46654.53;4971766;28;20118;-69
2023/05/17 03:08:04;;;;;;;22.87;4.10;;;;;;;-145.18;100.00;46656.50;4966575;28;20114;-69
2023/05/17 03:10:29;;;;;;;21.93;4.57;;;;;;;-145.18;100.00;46652.59;4952444;29;20043;-69
2023/05/17 03:12:54;;;;;;;16.77;4.33;;;;;;;-145.18;100.00;46652.59;4952023;29;20423;-70
2023/05/17 03:15:20;;;;;;;14.43;4.83;;;;;;;-145.18;100.00;46656.50;4952570;29;20122;-70
2023/05/17 03:17:45;;;;;;;15.50;5.40;;;;;;;-145.18;100.00;46660.41;4953505;28;20076;-70
2023/05/17 03:20:10;;;;;;;13.67;3.73;;;;;;;-145.18;100.00;46658.44;4971475;28;20039;-69
2023/05/17 03:22:36;;;;;;;29.70;4.00;;;;;;;-145.18;100.00;46656.50;4971393;28;20114;-70
2023/05/17 03:25:02;;;;;;;16.17;5.27;;;;;;;-145.18;100.00;46652.59;4971504;28;20499;-69
2023/05/17 03:27:29;;;;;;;17.40;4.70;;;;;;;-145.18;100.00;46656.50;4971248;28;20504;-69
2023/05/17 03:29:55;;;;;;;13.13;4.23;;;;;;;-145.18;100.00;46660.41;4952515;28;20277;-69
2023/05/17 03:32:20;;;;;;;16.10;3.97;;;;;;;-145.18;100.00;46658.44;4952106;29;20895;-69
2023/05/17 03:34:45;;;;;;;22.63;4.67;;;;;;;-145.18;100.00;46658.44;4952032;29;20039;-70
2023/05/17 03:37:11;;;;;;;14.40;4.47;;;;;;;-145.18;100.00;46658.44;4952231;29;20640;-69
2023/05/17 03:39:36;;;;;;;16.93;4.70;;;;;;;-145.18;100.00;46656.50;4969692;28;20126;-69
2023/05/17 03:42:02;;;;;;;17.23;4.97;;;;;;;-145.18;100.00;46656.50;4974917;28;20030;-70
2023/05/17 03:44:27;;;;;;;15.50;4.50;;;;;;;-145.18;100.00;46656.50;4975353;28;20034;-69
2023/05/17 03:46:53;;;;;;;8.63;3.70;;;;;;;-145.18;100.00;46650.63;4975203;28;20268;-69
2023/05/17 03:49:18;;;;;;;17.53;4.57;;;;;;;-145.18;100.00;46656.50;4961789;28;20043;-70
2023/05/17 03:51:44;;;;;;;18.73;4.60;;;;;;;-145.18;100.00;46654.53;4955745;29;20035;-69
2023/05/17 03:54:10;;;;;;;15.13;4.17;;;;;;;-145.18;100.00;46656.50;4955726;29;20380;-70
2023/05/17 03:56:35;;;;;;;19.63;5.13;;;;;;;-145.18;100.00;46656.50;4956273;28;20043;-69
2023/05/17 03:59:00;;;;;;;16.03;4.47;;;;;;;-145.18;100.00;46658.44;4982597;28;20439;-69
2023/05/17 04:01:26;;;;;;;21.57;4.57;;;;;;;-145.18;100.00;46656.50;4985048;28;20818;-69
2023/05/17 04:03:51;;;;;;;20.77;4.60;;;;;;;-145.18;100.00;46658.44;4981403;28;20054;-69
2023/05/17 04:06:16;;;;;;;16.80;3.97;;;;;;;-145.18;100.00;46654.53;4983790;28;20039;-69
2023/05/17 04:08:42;;;;;;;17.83;4.03;;;;;;;-145.18;100.00;46658.44;4983804;28;20162;-69
2023/05/17 04:11:12;;;;;;;19.37;5.30;;;;;;;-145.18;100.00;46658.44;4978408;28;20050;-69
2023/05/17 04:13:38;;;;;;;15.20;4.20;;;;;;;-145.18;100.00;46656.50;4979900;28;20042;-69
2023/05/17 04:16:04;;;;;;;14.10;4.70;;;;;;;-145.18;100.00;46658.44;4978157;28;20277;-69
2023/05/17 04:18:35;;;;;;;12.27;4.33;;;;;;;-145.18;100.00;46656.50;4953752;29;20694;-70
2023/05/17 04:21:02;;;;;;;22.20;4.67;;;;;;;-145.18;100.00;46662.34;4955253;29;20035;-69
2023/05/17 04:23:27;;;;;;;13.57;4.47;;;;;;;-145.18;100.00;46660.41;4955157;29;20281;-70
2023/05/17 04:25:53;;;;;;;13.43;5.80;;;;;;;-145.18;100.00;46658.44;4965753;28;20345;-70
2023/05/17 04:28:19;;;;;;;16.67;4.60;;;;;;;-145.18;100.00;46662.34;4970153;28;20089;-70
2023/05/17 04:30:46;;;;;;;17.07;4.73;;;;;;;-145.18;100.00;46654.53;4955196;29;20051;-70
2023/05/17 04:33:12;;;;;;;16.80;4.50;;;;;;;-145.18;100.00;46660.41;4955431;29;20261;-70
2023/05/17 04:35:37;;;;;;;11.77;4.50;;;;;;;-145.18;100.00;46660.41;4955067;29;20285;-69
2023/05/17 04:38:03;;;;;;;18.73;4.43;;;;;;;-145.18;100.00;46658.44;4956489;28;20464;-70
2023/05/17 04:40:28;;;;;;;11.47;3.83;;;;;;;-145.18;100.00;46658.44;4974602;28;20047;-70
2023/05/17 04:42:53;;;;;;;16.47;4.73;;;;;;;-145.18;100.00;46662.34;4969239;28;20050;-70
2023/05/17 04:45:19;;;;;;;18.57;5.00;;;;;;;-145.18;100.00;46656.50;4954904;29;20420;-70
2023/05/17 04:47:44;;;;;;;17.33;3.97;;;;;;;-145.18;100.00;46660.41;4954533;29;20115;-70
2023/05/17 04:50:11;;;;;;;16.90;3.93;;;;;;;-145.18;100.00;46658.44;4954612;28;20106;-70
2023/05/17 04:52:36;;;;;;;11.77;4.00;;;;;;;-145.18;100.00;46664.31;4954704;29;20575;-70
2023/05/17 04:55:02;;;;;;;12.73;4.47;;;;;;;-145.18;100.00;46662.34;4954652;29;20891;-70
2023/05/17 04:57:27;;;;;;;11.97;3.63;;;;;;;-145.18;100.00;46664.31;4954626;29;20543;-70
2023/05/17 04:59:52;;;;;;;19.53;4.60;;;;;;;-145.18;100.00;46662.34;4954433;29;20531;-70
2023/05/17 05:02:18;;;;;;;17.03;4.00;;;;;;;-145.18;100.00;46666.25;4954324;29;20035;-70
2023/05/17 05:04:43;;;;;;;18.57;4.63;;;;;;;-145.18;100.00;46660.41;4954306;29;20095;-70
2023/05/17 05:07:09;;;;;;;18.20;5.10;;;;;;;-145.18;100.00;46660.41;4954563;29;20043;-70
2023/05/17 05:09:34;;;;;;;19.20;4.27;;;;;;;-145.18;100.00;46666.25;4954150;29;20122;-70
2023/05/17 05:11:59;;;;;;;19.90;3.83;;;;;;;-145.18;100.00;46660.41;4954389;29;20035;-70
2023/05/17 05:14:25;;;;;;;21.87;5.67;;;;;;;-145.18;100.00;46674.06;4954339;29;20039;-70
2023/05/17 05:16:50;;;;;;;17.03;4.20;;;;;;;-145.18;100.00;46664.31;4954312;29;20469;-70
2023/05/17 05:19:15;;;;;;;18.67;3.97;;;;;;;-145.18;100.00;46668.22;4954044;29;20091;-70
2023/05/17 05:21:44;;;;;;;14.70;3.63;;;;;;;-145.18;100.00;46668.22;4954307;29;20039;-70
2023/05/17 05:24:10;;;;;;;12.67;3.23;;;;;;;-145.18;100.00;46672.13;4954085;29;20031;-70
2023/05/17 05:26:35;;;;;;;10.43;2.67;;;;;;;-145.18;100.00;46677.97;4954220;29;20282;-70
2023/05/17 05:29:00;;;;;;;12.17;3.30;;;;;;;-145.18;100.00;46676.03;4953777;29;20544;-70
2023/05/17 05:31:26;;;;;;;10.53;2.40;;;;;;;-145.18;100.00;46677.97;4954200;29;20085;-70
2023/05/17 05:33:51;;;;;;;22.93;3.07;;;;;;;-145.18;100.00;46679.94;4953597;29;20038;-70
2023/05/17 05:36:16;;;;;;;17.00;4.40;;;;;;;-145.18;100.00;46681.88;4954106;29;20093;-70
2023/05/17 05:38:42;;;;;;;8.77;2.20;;;;;;;-145.18;100.00;46685.78;4936645;29;20032;-70
2023/05/17 05:41:07;;;;;;;11.90;2.93;;;;;;;-145.18;100.00;46685.78;4953775;29;20039;-70
2023/05/17 05:43:34;;;;;;;11.27;2.60;;;;;;;-145.18;100.00;46683.84;4953678;29;20154;-70
2023/05/17 05:46:00;;;;;;;12.43;2.30;;;;;;;-145.18;100.00;46691.66;4953799;29;20039;-70
2023/05/17 05:48:25;;;;;;;10.70;1.70;;;;;;;-145.18;100.00;46689.69;4953622;29;20761;-70
2023/05/17 05:50:51;;;;;;;9.53;2.03;;;;;;;-145.18;100.00;46683.84;4953551;29;20035;-70
2023/05/17 05:53:16;;;;;;;17.33;2.47;;;;;;;-145.18;100.00;46664.31;4953608;29;20471;-70
2023/05/17 05:55:42;;;;;;;19.70;2.60;;;;;;;-145.18;100.00;46627.19;4953568;29;20027;-70
2023/05/17 05:58:07;;;;;;;15.57;2.43;;;;;;;-145.18;100.00;46593.97;4953350;29;20083;-70
2023/05/17 06:00:33;;;;;;;21.47;2.57;;;;;;;-145.18;100.00;46566.63;4953506;28;20031;-70
2023/05/17 06:02:59;;;;;;;14.07;2.20;;;;;;;-145.18;100.00;46564.69;4952150;29;20443;-70
2023/05/17 06:05:24;;;;;;;19.50;3.03;;;;;;;-145.18;100.00;46570.53;4953510;29;20138;-70
2023/05/17 06:07:50;;;;;;;6.70;2.03;;;;;;;-145.18;100.00;46570.53;4952902;29;20121;-70
2023/05/17 06:10:15;;;;;;;17.70;2.53;;;;;;;-145.18;100.00;46570.53;4953579;29;20050;-70
2023/05/17 06:12:40;;;;;;;10.87;2.20;;;;;;;-145.18;100.00;46582.25;4953260;29;20035;-70
2023/05/17 06:15:06;;;;;;;10.30;1.70;;;;;;;-145.18;100.00;46576.41;4953068;29;20031;-70
2023/05/17 06:17:32;;;;;;;17.40;3.50;;;;;;;-145.18;100.00;46584.22;4953021;29;20046;-70
2023/05/17 06:19:57;;;;;;;15.47;1.87;;;;;;;-145.18;100.00;46599.84;4952918;29;20118;-70
2023/05/17 06:22:22;;;;;;;12.77;2.40;;;;;;;-145.18;100.00;46597.88;4953252;29;20042;-70
2023/05/17 06:24:48;;;;;;;8.83;1.90;;;;;;;-145.18;100.00;46609.59;4952892;29;20381;-70
2023/05/17 06:27:13;;;;;;;9.77;1.70;;;;;;;-145.18;100.00;46613.50;4958853;28;20135;-70
2023/05/17 06:29:39;;;;;;;12.33;1.90;;;;;;;-145.18;100.00;46611.56;4962588;28;20045;-70
2023/05/17 06:32:05;;;;;;;13.07;1.77;;;;;;;-145.18;100.00;46623.28;4961684;28;20035;-70
2023/05/17 06:34:30;;;;;;;14.50;1.80;;;;;;;-145.18;100.00;46619.38;4961089;28;20373;-70
2023/05/17 06:36:55;;;;;;;18.87;1.80;;;;;;;-145.18;100.00;46627.19;4962707;28;20047;-69
2023/05/17 06:39:21;;;;;;;11.23;2.03;;;;;;;-145.18;100.00;46631.09;4961288;28;20137;-70
2023/05/17 06:41:46;;;;;;;11.50;2.40;;;;;;;-145.18;100.00;46636.94;4969180;28;20035;-70
2023/05/17 06:44:11;;;;;;;13.00;1.80;;;;;;;-145.18;100.00;46631.09;4972026;28;20118;-69
2023/05/17 06:46:37;;;;;;;12.87;1.90;;;;;;;-145.18;100.00;46638.91;4972087;28;20046;-70
2023/05/17 06:49:03;;;;;;;7.57;1.43;;;;;;;-145.18;100.00;46650.63;4971638;28;20082;-70
2023/05/17 06:51:28;;;;;;;21.57;1.67;;;;;;;-145.18;100.00;46666.25;4970245;28;20026;-70
2023/05/17 06:53:53;;;;;;;10.47;1.60;;;;;;;-145.18;100.00;46656.50;4962300;28;20039;-69
2023/05/17 06:56:19;;;;;;;13.90;1.60;;;;;;;-145.18;100.00;46656.50;4960396;28;20080;-70
2023/05/17 06:58:44;;;;;;;12.50;2.13;;;;;;;-145.18;100.00;46656.50;4961679;28;20042;-70
2023/05/17 07:01:10;;;;;;;8.77;1.93;;;;;;;-145.18;100.00;46679.94;4965460;28;20034;-70
2023/05/17 07:03:35;;;;;;;16.70;2.00;;;;;;;-145.18;100.00;46687.75;4952821;28;20051;-70
2023/05/17 07:06:00;;;;;;;11.33;1.90;;;;;;;-145.18;100.00;46687.75;4950544;29;20036;-69
2023/05/17 07:08:26;;;;;;;12.63;2.37;;;;;;;-145.18;100.00;46681.88;4951345;29;20158;-70
2023/05/17 07:10:52;;;;;;;12.33;1.93;;;;;;;-145.18;100.00;46676.03;4951308;29;20035;-70
2023/05/17 07:13:18;;;;;;;16.40;1.90;;;;;;;-145.18;100.00;46707.28;4951280;28;20067;-69
2023/05/17 07:15:44;;;;;;;9.53;1.80;;;;;;;-145.18;100.00;46687.75;4951707;29;20050;-69
2023/05/17 07:18:09;;;;;;;20.87;2.23;;;;;;;-145.18;100.00;46670.16;4951253;29;20039;-69
2023/05/17 07:20:35;;;;;;;11.50;1.70;;;;;;;-145.18;100.00;46679.94;4952176;29;20054;-69
2023/05/17 07:23:00;;;;;;;20.13;2.57;;;;;;;-145.18;100.00;46695.56;4951970;29;20032;-69
2023/05/17 07:25:25;;;;;;;10.70;1.43;;;;;;;-145.18;100.00;46677.97;4952285;29;20035;-69
2023/05/17 07:27:51;;;;;;;12.67;1.83;;;;;;;-145.18;100.00;46687.75;4951924;29;20078;-70
2023/05/17 07:30:16;;;;;;;14.10;1.83;;;;;;;-145.18;100.00;46715.09;4952180;29;20043;-69
2023/05/17 07:32:41;;;;;;;7.80;1.50;;;;;;;-145.18;100.00;46703.38;4952136;29;20039;-70
2023/05/17 07:35:07;;;;;;;18.97;1.87;;;;;;;-145.18;100.00;46709.22;4952056;29;20031;-69
2023/05/17 07:37:32;;;;;;;10.83;1.53;;;;;;;-145.18;100.00;46740.47;4934993;29;20510;-69
2023/05/17 07:39:58;;;;;;;11.17;1.30;;;;;;;-145.18;100.00;46777.59;4951836;29;20139;-70
2023/05/17 07:42:23;;;;;;;7.97;1.30;;;;;;;-145.18;100.00;46781.50;4952362;29;20372;-69
2023/05/17 07:44:48;;;;;;;17.10;1.80;;;;;;;-145.18;100.00;46756.09;4951646;29;20031;-69
2023/05/17 07:47:14;;;;;;;8.33;1.27;;;;;;;-145.18;100.00;46752.19;4935169;29;20043;-69
2023/05/17 07:49:40;;;;;;;8.20;1.57;;;;;;;-145.18;100.00;46801.03;4951919;29;20126;-69
2023/05/17 07:52:06;;;;;;;11.97;1.87;;;;;;;-145.18;100.00;46781.50;4951788;29;20040;-69
2023/05/17 07:54:31;;;;;;;8.00;2.00;;;;;;;-145.18;100.00;46775.66;4952000;29;20035;-69
2023/05/17 07:56:58;;;;;;;11.27;2.23;;;;;;;-145.18;100.00;46758.06;4951940;29;20035;-70
2023/05/17 07:59:24;;;;;;;13.63;1.70;;;;;;;-145.18;100.00;46777.59;4951745;29;20043;-70
2023/05/17 08:01:50;;;;;;;11.40;1.97;;;;;;;-145.18;100.00;46752.19;4951802;29;20063;-70
2023/05/17 08:04:15;;;;;;;15.87;2.17;;;;;;;-145.18;100.00;46761.97;4951694;29;20830;-69
2023/05/17 08:06:47;;;;;;;6.27;1.30;;;;;;;-145.18;100.00;46769.78;4951975;29;20027;-69
2023/05/17 08:09:15;;;;;;;9.10;1.40;;;;;;;-145.18;100.00;46793.22;4951776;29;20494;-70
2023/05/17 08:11:44;;;;;;;6.83;1.17;;;;;;;-145.18;100.00;46894.81;4951889;29;20047;-69
2023/05/17 08:14:12;;;;;;;6.63;1.30;;;;;;;-145.18;100.00;46933.88;4918909;29;20400;-69
2023/05/17 08:16:37;;;;;;;7.13;1.13;;;;;;;-145.18;100.00;47396.88;4951836;29;20059;-69
2023/05/17 08:19:02;;;;;;;6.33;1.17;;;;;;;-145.18;100.00;47504.31;4951597;29;20059;-69
2023/05/17 08:21:28;;;;;;;6.80;1.43;;;;;;;-145.18;100.00;47418.38;4951864;29;20031;-70
2023/05/17 08:23:54;;;;;;;4.47;1.07;;;;;;;-145.18;100.00;47414.47;4951733;28;20027;-69
2023/05/17 08:26:19;;;;;;;5.43;0.90;;;;;;;-145.18;100.00;47391.00;4954710;29;20495;-70
2023/05/17 08:28:45;;;;;;;9.50;1.30;;;;;;;-145.18;100.00;47394.91;4955128;29;20149;-69
2023/05/17 08:31:11;;;;;;;6.73;1.57;;;;;;;-145.18;100.00;47406.63;4955004;29;20040;-69
2023/05/17 08:33:36;;;;;;;5.97;0.90;;;;;;;-145.18;100.00;47391.00;4955014;29;20039;-69
2023/05/17 08:36:06;;;;;;;9.60;1.30;;;;;;;-145.18;100.00;47387.09;4955068;29;20043;-69
2023/05/17 08:38:33;;;;;;;5.70;1.17;;;;;;;-145.18;100.00;47363.66;4954778;29;20484;-69
2023/05/17 08:40:58;;;;;;;5.37;1.03;;;;;;;-145.18;100.00;47346.06;4954943;29;20031;-70
2023/05/17 08:43:25;;;;;;;6.87;0.93;;;;;;;-145.18;100.00;47361.72;4937484;29;20090;-70
2023/05/17 08:45:51;;;;;;;6.93;1.23;;;;;;;-145.18;100.00;47377.34;4954839;29;20035;-70
2023/05/17 08:48:19;;;;;;;12.13;1.70;;;;;;;-145.18;100.00;47348.03;4954683;29;20078;-70
2023/05/17 08:50:49;;;;;;;8.57;1.00;;;;;;;-145.18;100.00;47357.78;4955041;29;20031;-70
2023/05/17 08:53:15;;;;;;;4.63;0.90;;;;;;;-145.18;100.00;47344.13;4954713;29;20058;-69
2023/05/17 08:55:48;;;;;;;9.27;1.60;;;;;;;-145.18;100.00;47346.06;4954802;29;20396;-70
2023/05/17 08:58:19;;;;;;;6.30;1.27;;;;;;;-145.18;100.00;47359.75;4954608;29;20532;-70
2023/05/17 09:00:46;;;;;;;9.50;1.43;;;;;;;-145.18;100.00;47348.03;4954682;29;20039;-69
2023/05/17 09:03:17;;;;;;;8.10;1.27;;;;;;;-145.18;100.00;47326.53;4954055;29;20034;-69
2023/05/17 09:05:44;;;;;;;8.87;1.50;;;;;;;-145.18;100.00;47336.31;4954645;29;20098;-69
2023/05/17 09:08:12;;;;;;;7.03;1.50;;;;;;;-145.18;100.00;47338.25;4954409;29;20043;-69
2023/05/17 09:10:41;;;;;;;3.63;0.90;;;;;;;-145.18;100.00;47377.34;4954470;29;20130;-70
2023/05/17 09:13:14;;;;;;;7.63;1.00;;;;;;;-145.18;100.00;47344.13;4956496;28;20491;-70
2023/05/17 09:15:44;;;;;;;8.20;1.53;;;;;;;-145.18;100.00;47332.41;4959557;28;20122;-69
2023/05/17 09:18:12;;;;;;;13.10;1.27;;;;;;;-145.18;100.00;47308.97;4954274;29;20122;-70
2023/05/17 09:20:38;;;;;;;6.93;1.13;;;;;;;-145.18;100.00;47326.53;4954261;29;20043;-69
2023/05/17 09:23:09;;;;;;;6.27;1.20;;;;;;;-145.18;100.00;47338.25;4954056;29;20043;-70
2023/05/17 09:25:35;;;;;;;7.77;1.27;;;;;;;-145.18;100.00;47348.03;4954402;29;20035;-69
2023/05/17 09:28:03;;;;;;;9.30;1.67;;;;;;;-145.18;100.00;47375.38;4955069;28;20491;-70
2023/05/17 09:30:33;;;;;;;6.30;1.07;;;;;;;-145.18;100.00;47349.97;4961554;28;20084;-70
2023/05/17 09:33:06;;;;;;;8.33;1.13;;;;;;;-145.18;100.00;47334.34;4944063;28;20027;-70
2023/05/17 09:35:32;;;;;;;7.80;1.47;;;;;;;-145.18;100.00;47326.53;4961517;28;20069;-70
2023/05/17 09:38:13;;;;;;;3.73;1.20;;;;;;;-145.18;100.00;47305.06;4965234;28;20049;-70
2023/05/17 09:40:39;;;;;;;6.67;1.50;;;;;;;-145.18;100.00;47328.50;4973183;28;20488;-71
2023/05/17 09:43:04;;;;;;;12.60;2.00;;;;;;;-145.18;100.00;47320.69;4960444;28;20042;-70
2023/05/17 09:45:33;;;;;;;8.40;1.40;;;;;;;-145.18;100.00;47308.97;4953725;29;20498;-70
2023/05/17 09:48:17;;;;;;;10.13;1.70;;;;;;;-145.18;100.00;47318.72;4961804;28;20093;-70
2023/05/17 09:50:50;;;;;;;3.50;1.00;;;;;;;-145.18;100.00;47344.13;4960575;28;20031;-69
2023/05/17 09:53:32;;;;;;;5.00;1.30;;;;;;;-145.18;100.00;47305.06;4936110;29;20471;-69
2023/05/17 09:56:01;;;;;;;6.83;1.23;;;;;;;-145.18;100.00;47340.22;4953646;29;20039;-70
2023/05/17 09:58:30;;;;;;;6.10;1.30;;;;;;;-145.18;100.00;47310.91;4953537;29;20066;-69
2023/05/17 10:01:00;;;;;;;10.30;1.97;;;;;;;-145.18;100.00;47328.50;4953531;29;20147;-69
2023/05/17 10:03:30;;;;;;;10.00;1.47;;;;;;;-145.18;100.00;47314.81;4953056;29;20500;-69
2023/05/17 10:05:56;;;;;;;7.30;1.20;;;;;;;-145.18;100.00;47328.50;4936219;29;20042;-69
2023/05/17 10:08:24;;;;;;;8.87;1.53;;;;;;;-145.18;100.00;47324.59;4953202;29;20031;-69
2023/05/17 10:10:53;;;;;;;3.27;0.90;;;;;;;-145.18;100.00;47303.09;4953189;29;20042;-69
2023/05/17 10:13:23;;;;;;;6.57;1.20;;;;;;;-145.18;100.00;47308.97;4953182;29;20066;-69
2023/05/17 10:15:50;;;;;;;9.10;1.37;;;;;;;-145.18;100.00;47301.16;4952991;29;20400;-69
2023/05/17 10:18:16;;;;;;;6.30;1.30;;;;;;;-145.18;100.00;47303.09;4970152;28;20122;-69
2023/05/17 10:20:42;;;;;;;5.80;1.13;;;;;;;-145.18;100.00;47316.78;4964576;28;20156;-69
2023/05/17 10:23:10;;;;;;;5.90;1.30;;;;;;;-145.18;100.00;47293.31;4955744;28;20035;-69
2023/05/17 10:25:36;;;;;;;8.47;1.10;;;;;;;-145.18;100.00;47277.69;4968524;28;20045;-69
2023/05/17 10:28:05;;;;;;;3.83;1.40;;;;;;;-145.18;100.00;47267.94;4972163;28;20030;-70
2023/05/17 10:30:32;;;;;;;7.57;1.63;;;;;;;-145.18;100.00;47248.41;4969010;28;20043;-69
2023/05/17 10:32:59;;;;;;;9.00;1.20;;;;;;;-145.18;100.00;47246.44;4972145;28;20049;-70
2023/05/17 10:35:26;;;;;;;6.10;1.20;;;;;;;-145.18;100.00;47260.13;4972130;28;20038;-69
2023/05/17 10:37:52;;;;;;;7.30;1.53;;;;;;;-145.18;100.00;47250.34;4971813;28;20027;-70
2023/05/17 10:40:18;;;;;;;8.83;1.67;;;;;;;-145.18;100.00;47244.50;4971951;28;20042;-69
2023/05/17 10:42:52;;;;;;;7.30;1.30;;;;;;;-145.18;100.00;47273.78;4972035;28;20113;-69
2023/05/17 10:45:24;;;;;;;6.03;1.10;;;;;;;-145.18;100.00;47258.16;4972072;28;20059;-69
2023/05/17 10:47:51;;;;;;;7.27;1.20;;;;;;;-145.18;100.00;47281.59;4971334;28;20479;-69
2023/05/17 10:50:25;;;;;;;3.53;1.43;;;;;;;-145.18;100.00;47273.78;4971905;28;20081;-69
2023/05/17 10:52:54;;;;;;;5.13;1.30;;;;;;;-145.18;100.00;47250.34;4972013;28;20109;-69
2023/05/17 10:55:21;;;;;;;5.70;1.77;;;;;;;-145.18;100.00;47236.66;4971762;28;20035;-69
2023/05/17 10:58:12;;;;;;;11.77;1.57;;;;;;;-145.18;100.00;47250.34;4958522;28;20094;-69
2023/05/17 11:00:39;;;;;;;9.03;1.37;;;;;;;-145.18;100.00;47236.66;4952380;29;20110;-69
2023/05/17 11:03:17;;;;;;;4.53;1.23;;;;;;;-145.18;100.00;47269.88;4952342;29;20123;-69
2023/05/17 11:06:04;;;;;;;5.07;1.60;;;;;;;-145.18;100.00;47246.44;4952464;29;20051;-69